createdAt,value
2019-04-29T00:01:26.711Z,100000.69
2019-04-29T00:03:58.215Z,99994.67
2019-04-29T00:06:29.289Z,99996.66
2019-04-29T00:09:00.230Z,100005.23
2019-04-29T00:11:33.183Z,100008.45
2019-04-29T00:14:04.198Z,100013.97
2019-04-29T00:16:49.272Z,100011.11
2019-04-29T00:19:38.703Z,100013.17
2019-04-29T00:22:09.975Z,100013.17
2019-04-29T00:24:41.597Z,100008.34
2019-04-29T00:27:12.903Z,100014.80
2019-04-29T00:29:44.104Z,100015.93
2019-04-29T00:32:15.322Z,100007.58
2019-04-29T00:34:46.671Z,100013.55
2019-04-29T00:37:19.405Z,100014.67
2019-04-29T00:40:07.593Z,100013.14
2019-04-29T00:42:43.278Z,100018.55
2019-04-29T00:45:13.657Z,100019.59
2019-04-29T00:47:44.603Z,100015.36
2019-04-29T00:50:15.718Z,100013.84
2019-04-29T00:52:46.839Z,100019.45
2019-04-29T00:55:22.263Z,100011.65
2019-04-29T00:57:53.395Z,100021.51
2019-04-29T01:00:26.195Z,100019.03
2019-04-29T01:02:57.535Z,100014.73
2019-04-29T01:05:29.256Z,100017.09
2019-04-29T01:08:00.752Z,100014.22
2019-04-29T01:10:31.851Z,100013.29
2019-04-29T01:13:02.819Z,100018.61
2019-04-29T01:15:34.094Z,100012.05
2019-04-29T01:18:05.225Z,100018.22
2019-04-29T01:20:36.223Z,100013.29
2019-04-29T01:23:07.286Z,100013.29
2019-04-29T01:25:38.450Z,100012.35
2019-04-29T01:28:13.864Z,100007.88
2019-04-29T01:30:54.192Z,100010.44
2019-04-29T01:33:25.056Z,100009.09
2019-04-29T01:36:06.628Z,100017.67
2019-04-29T01:38:37.820Z,100022.91
2019-04-29T01:41:10.668Z,100017.28
2019-04-29T01:43:52.207Z,100024.11
2019-04-29T01:46:23.263Z,100016.13
2019-04-29T01:48:54.233Z,100015.34
2019-04-29T01:51:25.428Z,100019.52
2019-04-29T01:53:56.719Z,100027.28
2019-04-29T01:56:28.262Z,100026.23
2019-04-29T01:58:59.327Z,100028.19
2019-04-29T02:01:30.649Z,100036.34
2019-04-29T02:04:01.697Z,100034.05
2019-04-29T02:06:32.770Z,100043.75
2019-04-29T02:09:09.786Z,100041.48
2019-04-29T02:11:39.351Z,100042.82
2019-04-29T02:14:10.438Z,100042.89
2019-04-29T02:16:41.668Z,100047.53
2019-04-29T02:19:12.911Z,100047.44
2019-04-29T02:21:45.730Z,100049.65
2019-04-29T02:24:18.841Z,100051.73
2019-04-29T02:26:50.061Z,100063.70
2019-04-29T02:29:21.204Z,100058.39
2019-04-29T02:31:52.346Z,100056.66
2019-04-29T02:34:23.439Z,100054.48
2019-04-29T02:36:54.571Z,100053.25
2019-04-29T02:39:33.295Z,100054.09
2019-04-29T02:42:22.518Z,100058.74
2019-04-29T02:44:54.537Z,100055.66
2019-04-29T02:47:25.942Z,100055.83
2019-04-29T02:49:57.116Z,100055.22
2019-04-29T02:52:28.190Z,100061.25
2019-04-29T02:55:01.081Z,100058.50
2019-04-29T02:57:36.441Z,100060.14
2019-04-29T03:00:10.217Z,100060.94
2019-04-29T03:02:42.931Z,100062.26
2019-04-29T03:05:16.007Z,100063.02
2019-04-29T03:07:47.422Z,100065.59
2019-04-29T03:10:18.706Z,100059.42
2019-04-29T03:12:50.090Z,100060.36
2019-04-29T03:15:29.659Z,100065.55
2019-04-29T03:18:00.792Z,100067.14
2019-04-29T03:20:40.002Z,100072.45
2019-04-29T03:23:12.693Z,100078.71
2019-04-29T03:25:43.890Z,100075.88
2019-04-29T03:28:15.098Z,100077.33
2019-04-29T03:30:46.416Z,100074.05
2019-04-29T03:33:17.603Z,100076.89
2019-04-29T03:35:48.836Z,100074.40
2019-04-29T03:38:20.074Z,100072.84
2019-04-29T03:40:51.226Z,100073.38
2019-04-29T03:43:22.471Z,100070.19
2019-04-29T03:45:53.718Z,100079.58
2019-04-29T03:48:26.006Z,100082.69
2019-04-29T03:50:57.334Z,100083.78
2019-04-29T03:53:28.857Z,100082.62
2019-04-29T03:56:00.323Z,100087.95
2019-04-29T03:58:31.720Z,100087.16
2019-04-29T04:01:04.646Z,100091.05
2019-04-29T04:03:40.292Z,100088.23
2019-04-29T04:06:22.305Z,100092.92
2019-04-29T04:09:05.407Z,100093.38
2019-04-29T04:11:28.292Z,100091.11
2019-04-29T04:13:59.524Z,100091.11
2019-04-29T04:16:32.626Z,100094.05
2019-04-29T04:19:08.009Z,100093.16
2019-04-29T04:21:38.674Z,100089.17
2019-04-29T04:24:09.670Z,100094.05
2019-04-29T04:26:40.981Z,100098.47
2019-04-29T04:29:12.216Z,100105.08
2019-04-29T04:31:43.506Z,100108.34
2019-04-29T04:34:14.717Z,100109.09
2019-04-29T04:36:45.902Z,100108.83
2019-04-29T04:39:16.993Z,100104.95
2019-04-29T04:41:48.369Z,100101.36
2019-04-29T04:44:19.756Z,100101.27
2019-04-29T04:46:51.077Z,100108.14
2019-04-29T04:49:22.337Z,100105.96
2019-04-29T04:51:53.689Z,100115.37
2019-04-29T04:54:24.800Z,100116.21
2019-04-29T04:56:56.067Z,100112.44
2019-04-29T04:59:27.296Z,100118.28
2019-04-29T05:01:58.532Z,100120.48
2019-04-29T05:04:29.705Z,100114.70
2019-04-29T05:07:00.870Z,100116.65
2019-04-29T05:09:33.100Z,100118.77
2019-04-29T05:12:04.708Z,100114.73
2019-04-29T05:14:36.028Z,100113.21
2019-04-29T05:17:07.302Z,100116.03
2019-04-29T05:19:38.462Z,100116.42
2019-04-29T05:22:10.179Z,100119.95
2019-04-29T05:24:41.360Z,100118.87
2019-04-29T05:27:12.555Z,100119.45
2019-04-29T05:29:43.668Z,100111.30
2019-04-29T05:32:14.938Z,100109.73
2019-04-29T05:34:48.295Z,100112.20
2019-04-29T05:37:29.936Z,100111.75
2019-04-29T05:40:01.156Z,100118.42
2019-04-29T05:42:32.391Z,100125.31
2019-04-29T05:45:23.270Z,100118.83
2019-04-29T05:47:57.091Z,100119.77
2019-04-29T05:50:30.585Z,100122.44
2019-04-29T05:53:03.465Z,100123.36
2019-04-29T05:55:34.544Z,100123.59
2019-04-29T05:58:11.766Z,100120.37
2019-04-29T06:00:44.796Z,100121.45
2019-04-29T06:03:16.088Z,100120.62
2019-04-29T06:05:48.396Z,100122.41
2019-04-29T06:08:19.619Z,100120.67
2019-04-29T06:10:50.979Z,100120.20
2019-04-29T06:13:22.208Z,100120.62
2019-04-29T06:15:53.504Z,100124.30
2019-04-29T06:18:24.773Z,100120.16
2019-04-29T06:21:08.269Z,100121.77
2019-04-29T06:23:29.230Z,100127.92
2019-04-29T06:26:01.186Z,100127.64
2019-04-29T06:28:33.476Z,100130.95
2019-04-29T06:31:04.598Z,100118.56
2019-04-29T06:33:35.905Z,100120.64
2019-04-29T06:36:07.006Z,100119.34
2019-04-29T06:38:38.244Z,100119.52
2019-04-29T06:41:09.998Z,100120.85
2019-04-29T06:43:42.223Z,100122.75
2019-04-29T06:46:13.576Z,100126.80
2019-04-29T06:48:44.765Z,100130.17
2019-04-29T06:51:15.941Z,100129.64
2019-04-29T06:53:47.824Z,100130.09
2019-04-29T06:56:19.246Z,100133.05
2019-04-29T06:58:50.467Z,100127.70
2019-04-29T07:01:22.694Z,100124.68
2019-04-29T07:03:55.803Z,100128.17
2019-04-29T07:06:28.109Z,100133.69
2019-04-29T07:08:59.389Z,100141.33
2019-04-29T07:11:31.864Z,100143.26
2019-04-29T07:14:03.737Z,100141.36
2019-04-29T07:16:35.092Z,100137.28
2019-04-29T07:19:06.318Z,100128.91
2019-04-29T07:21:37.421Z,100133.97
2019-04-29T07:24:08.707Z,100131.87
2019-04-29T07:26:40.100Z,100132.99
2019-04-29T07:29:12.347Z,100137.00
2019-04-29T07:31:43.514Z,100129.19
2019-04-29T07:34:16.154Z,100129.38
2019-04-29T07:36:47.270Z,100131.77
2019-04-29T07:39:18.508Z,100126.31
2019-04-29T07:41:53.697Z,100132.39
2019-04-29T07:44:24.488Z,100132.05
2019-04-29T07:47:00.438Z,100132.61
2019-04-29T07:49:30.204Z,100135.31
2019-04-29T07:52:01.401Z,100137.80
2019-04-29T07:54:32.738Z,100139.59
2019-04-29T07:57:03.893Z,100139.53
2019-04-29T07:59:38.276Z,100140.86
2019-04-29T08:02:08.333Z,100143.35
2019-04-29T08:04:40.459Z,100139.45
2019-04-29T08:07:11.748Z,100135.72
2019-04-29T08:09:44.282Z,100132.67
2019-04-29T08:12:15.499Z,100130.70
2019-04-29T08:14:46.929Z,100131.34
2019-04-29T08:17:18.478Z,100132.95
2019-04-29T08:19:49.984Z,100139.98
2019-04-29T08:22:27.250Z,100139.39
2019-04-29T08:24:55.675Z,100136.60
2019-04-29T08:27:39.255Z,100145.25
2019-04-29T08:29:59.775Z,100140.53
2019-04-29T08:32:31.558Z,100138.73
2019-04-29T08:35:08.346Z,100140.62
2019-04-29T08:37:40.802Z,100140.80
2019-04-29T08:40:16.463Z,100142.90
2019-04-29T08:42:52.965Z,100146.20
2019-04-29T08:45:26.392Z,100140.30
2019-04-29T08:47:58.777Z,100148.87
2019-04-29T08:50:30.017Z,100145.43
2019-04-29T08:53:01.272Z,100148.38
2019-04-29T08:55:36.149Z,100153.45
2019-04-29T08:58:06.917Z,100139.95
2019-04-29T09:00:38.402Z,100152.69
2019-04-29T09:03:09.836Z,100143.26
2019-04-29T09:05:41.686Z,100148.78
2019-04-29T09:08:15.567Z,100152.27
2019-04-29T09:10:46.779Z,100149.66
2019-04-29T09:13:17.866Z,100143.59
2019-04-29T09:15:48.933Z,100145.28
2019-04-29T09:18:20.208Z,100156.28
2019-04-29T09:20:51.479Z,100153.13
2019-04-29T09:23:24.329Z,100156.75
2019-04-29T09:26:02.979Z,100156.39
2019-04-29T09:28:33.688Z,100160.28
2019-04-29T09:31:05.016Z,100160.48
2019-04-29T09:33:36.181Z,100166.11
2019-04-29T09:36:09.585Z,100160.97
2019-04-29T09:38:40.261Z,100162.69
2019-04-29T09:41:13.339Z,100172.23
2019-04-29T09:43:46.102Z,100176.48
2019-04-29T09:46:18.952Z,100174.51
2019-04-29T09:48:50.416Z,100180.60
2019-04-29T09:51:25.830Z,100182.70
2019-04-29T09:53:54.600Z,100190.52
2019-04-29T09:56:25.790Z,100188.23
2019-04-29T09:59:16.858Z,100186.32
2019-04-29T10:01:50.422Z,100192.31
2019-04-29T10:04:26.797Z,100194.13
2019-04-29T10:06:58.913Z,100195.46
2019-04-29T10:09:30.139Z,100195.03
2019-04-29T10:12:01.563Z,100196.81
2019-04-29T10:14:32.961Z,100200.42
2019-04-29T10:17:22.152Z,100196.13
2019-04-29T10:19:58.208Z,100200.31
2019-04-29T10:22:29.860Z,100202.98
2019-04-29T10:25:01.021Z,100200.89
2019-04-29T10:27:32.280Z,100205.34
2019-04-29T10:30:07.710Z,100208.16
2019-04-29T10:32:42.352Z,100209.75
2019-04-29T10:35:12.939Z,100213.00
2019-04-29T10:37:44.318Z,100218.70
2019-04-29T10:40:27.987Z,100217.95
2019-04-29T10:43:17.316Z,100215.03
2019-04-29T10:46:07.079Z,100213.66
2019-04-29T10:48:40.351Z,100215.17
2019-04-29T10:51:13.368Z,100208.09
2019-04-29T10:53:46.625Z,100211.50
2019-04-29T10:56:17.676Z,100212.63
2019-04-29T10:58:48.905Z,100214.69
2019-04-29T11:01:33.616Z,100218.88
2019-04-29T11:04:04.973Z,100218.58
2019-04-29T11:06:37.058Z,100215.61
2019-04-29T11:09:14.343Z,100210.86
2019-04-29T11:11:44.765Z,100207.41
2019-04-29T11:14:17.025Z,100210.07
2019-04-29T11:16:48.374Z,100207.23
2019-04-29T11:19:19.770Z,100209.50
2019-04-29T11:21:52.266Z,100206.23
2019-04-29T11:24:27.892Z,100205.84
2019-04-29T11:27:11.520Z,100203.57
2019-04-29T11:29:35.782Z,100205.30
2019-04-29T11:32:08.431Z,100215.17
2019-04-29T11:34:55.105Z,100205.48
2019-04-29T11:37:27.405Z,100207.36
2019-04-29T11:39:59.090Z,100209.81
2019-04-29T11:42:31.903Z,100209.78
2019-04-29T11:45:04.980Z,100205.97
2019-04-29T11:47:36.336Z,100204.78
2019-04-29T11:50:15.049Z,100208.42
2019-04-29T11:52:46.292Z,100212.95
2019-04-29T11:55:18.626Z,100215.86
2019-04-29T11:57:52.061Z,100213.28
2019-04-29T12:00:34.454Z,100209.44
2019-04-29T12:03:09.959Z,100211.73
2019-04-29T12:05:44.869Z,100209.16
2019-04-29T12:08:17.068Z,100215.84
2019-04-29T12:11:05.670Z,100206.91
2019-04-29T12:13:31.921Z,100206.52
2019-04-29T12:16:13.571Z,100215.53
2019-04-29T12:18:46.410Z,100203.25
2019-04-29T12:21:25.523Z,100202.48
2019-04-29T12:23:57.634Z,100209.32
2019-04-29T12:26:30.303Z,100204.00
2019-04-29T12:29:01.493Z,100194.28
2019-04-29T12:31:34.392Z,100194.82
2019-04-29T12:34:10.046Z,100192.55
2019-04-29T12:36:55.895Z,100197.13
2019-04-29T12:39:43.101Z,100196.24
2019-04-29T12:42:06.828Z,100195.80
2019-04-29T12:44:44.083Z,100191.98
2019-04-29T12:47:26.373Z,100193.00
2019-04-29T12:49:50.353Z,100190.25
2019-04-29T12:52:21.693Z,100200.59
2019-04-29T12:54:53.053Z,100178.77
2019-04-29T12:57:24.837Z,100186.05
2019-04-29T12:59:55.999Z,100192.97
2019-04-29T13:02:34.681Z,100183.61
2019-04-29T13:05:26.698Z,100184.72
2019-04-29T13:08:02.328Z,100177.75
2019-04-29T13:10:46.677Z,100184.89
2019-04-29T13:13:20.146Z,100185.77
2019-04-29T13:16:08.824Z,100180.98
2019-04-29T13:18:48.950Z,100178.59
2019-04-29T13:21:17.933Z,100183.16
2019-04-29T13:24:04.975Z,100188.22
2019-04-29T13:26:28.222Z,100192.78
2019-04-29T13:29:01.491Z,100181.44
2019-04-29T13:31:38.104Z,100179.56
2019-04-29T13:34:22.483Z,100178.45
2019-04-29T13:36:36.795Z,100180.16
2019-04-29T13:39:08.046Z,100179.17
2019-04-29T13:41:56.307Z,100189.02
2019-04-29T13:44:13.827Z,100189.36
2019-04-29T13:47:04.839Z,100194.45
2019-04-29T13:49:49.126Z,100195.84
2019-04-29T13:52:16.710Z,100198.08
2019-04-29T13:54:48.072Z,100189.87
2019-04-29T13:57:19.058Z,100196.66
2019-04-29T13:59:51.960Z,100195.17
2019-04-29T14:02:36.709Z,100195.59
2019-04-29T14:05:12.040Z,100194.40
2019-04-29T14:07:43.225Z,100199.72
2019-04-29T14:10:16.589Z,100198.64
2019-04-29T14:12:49.299Z,100200.06
2019-04-29T14:15:21.129Z,100208.94
2019-04-29T14:17:52.516Z,100196.52
2019-04-29T14:20:23.713Z,100198.56
2019-04-29T14:22:55.076Z,100204.56
2019-04-29T14:25:26.504Z,100210.56
2019-04-29T14:27:57.523Z,100202.84
2019-04-29T14:30:38.428Z,100198.13
2019-04-29T14:33:03.230Z,100199.62
2019-04-29T14:35:43.629Z,100202.84
2019-04-29T14:38:14.693Z,100199.50
2019-04-29T14:40:45.897Z,100200.11
2019-04-29T14:43:35.170Z,100195.95
2019-04-29T14:46:16.129Z,100195.19
2019-04-29T14:48:51.550Z,100202.51
2019-04-29T14:51:22.631Z,100194.30
2019-04-29T14:53:56.748Z,100196.95
2019-04-29T14:56:27.401Z,100184.08
2019-04-29T14:59:06.655Z,100192.73
2019-04-29T15:01:33.236Z,100204.23
2019-04-29T15:04:18.032Z,100186.25
2019-04-29T15:06:39.337Z,100192.25
2019-04-29T15:09:16.658Z,100191.83
2019-04-29T15:11:58.741Z,100182.70
2019-04-29T15:14:37.159Z,100183.52
2019-04-29T15:17:25.698Z,100180.22
2019-04-29T15:20:07.559Z,100175.87
2019-04-29T15:22:42.780Z,100177.80
2019-04-29T15:25:16.702Z,100179.60
2019-04-29T15:27:47.283Z,100182.52
2019-04-29T15:30:19.240Z,100181.75
2019-04-29T15:32:53.168Z,100189.31
2019-04-29T15:35:24.332Z,100193.30
2019-04-29T15:37:56.352Z,100190.72
2019-04-29T15:40:28.769Z,100188.14
2019-04-29T15:43:00.225Z,100194.52
2019-04-29T15:45:32.378Z,100199.02
2019-04-29T15:48:04.608Z,100204.62
2019-04-29T15:50:38.660Z,100204.36
2019-04-29T15:53:11.656Z,100200.38
2019-04-29T15:55:42.941Z,100209.01
2019-04-29T15:58:14.310Z,100211.00
2019-04-29T16:00:45.930Z,100207.13
2019-04-29T16:03:20.065Z,100206.33
2019-04-29T16:06:21.171Z,100203.97
2019-04-29T16:08:49.337Z,100204.88
2019-04-29T16:11:39.771Z,100209.30
2019-04-29T16:14:18.393Z,100208.44
2019-04-29T16:16:50.487Z,100203.98
2019-04-29T16:19:21.995Z,100205.05
2019-04-29T16:21:53.196Z,100207.44
2019-04-29T16:27:01.436Z,100209.41
2019-04-29T16:29:30.750Z,100222.81
2019-04-29T16:32:02.879Z,100217.09
2019-04-29T16:34:37.380Z,100221.22
2019-04-29T16:37:08.630Z,100228.39
2019-04-29T16:39:39.930Z,100224.41
2019-04-29T16:42:12.722Z,100216.13
2019-04-29T16:44:44.037Z,100237.49
2019-04-29T16:47:16.253Z,100236.17
2019-04-29T16:49:47.795Z,100237.49
2019-04-29T16:52:19.078Z,100228.09
2019-04-29T16:54:50.741Z,100228.70
2019-04-29T16:57:22.225Z,100239.61
2019-04-29T16:59:53.590Z,100240.32
2019-04-29T17:02:25.149Z,100241.30
2019-04-29T17:04:56.600Z,100236.98
2019-04-29T17:07:28.375Z,100240.25
2019-04-29T17:10:01.273Z,100243.47
2019-04-29T17:12:38.060Z,100246.46
2019-04-29T17:15:23.572Z,100250.57
2019-04-29T17:17:42.553Z,100250.47
2019-04-29T17:20:15.408Z,100256.14
2019-04-29T17:22:46.686Z,100250.57
2019-04-29T17:25:18.710Z,100257.19
2019-04-29T17:27:52.622Z,100256.14
2019-04-29T17:30:46.571Z,100264.99
2019-04-29T17:33:27.423Z,100262.07
2019-04-29T17:35:14.118Z,100212.88
2019-04-29T17:35:53.967Z,100257.31
2019-04-29T17:38:25.375Z,100252.94
2019-04-29T17:40:56.799Z,100260.87
2019-04-29T17:43:32.445Z,100248.62
2019-04-29T17:46:08.255Z,100260.06
2019-04-29T17:48:59.550Z,100256.77
2019-04-29T17:51:31.785Z,100250.34
2019-04-29T17:54:07.339Z,100252.64
2019-04-29T17:57:04.893Z,100246.50
2019-04-29T17:59:29.645Z,100254.91
2019-04-29T18:02:05.372Z,100249.65
2019-04-29T18:04:57.297Z,100252.42
2019-04-29T18:07:45.130Z,100254.38
2019-04-29T18:10:23.988Z,100259.30
2019-04-29T18:12:50.752Z,100250.55
2019-04-29T18:15:23.641Z,100256.38
2019-04-29T18:17:55.902Z,100262.45
2019-04-29T18:20:33.070Z,100277.42
2019-04-29T18:23:19.882Z,100274.48
2019-04-29T18:25:52.702Z,100277.27
2019-04-29T18:28:24.396Z,100278.96
2019-04-29T18:30:57.807Z,100276.91
2019-04-29T18:33:30.434Z,100279.34
2019-04-29T18:36:05.223Z,100288.19
2019-04-29T18:38:36.091Z,100281.16
2019-04-29T18:41:07.412Z,100281.16
2019-04-29T18:43:38.757Z,100281.29
2019-04-29T18:46:12.457Z,100274.27
2019-04-29T18:48:43.146Z,100272.85
2019-04-29T18:51:15.394Z,100263.30
2019-04-29T18:53:47.194Z,100266.04
2019-04-29T18:56:19.362Z,100265.25
2019-04-29T18:58:50.680Z,100253.50
2019-04-29T19:01:23.931Z,100259.33
2019-04-29T19:03:59.420Z,100262.45
2019-04-29T19:06:30.629Z,100269.06
2019-04-29T19:09:02.806Z,100266.22
2019-04-29T19:11:35.503Z,100265.93
2019-04-29T19:14:06.868Z,100264.85
2019-04-29T19:16:39.533Z,100269.29
2019-04-29T19:19:10.943Z,100269.31
2019-04-29T19:21:42.085Z,100262.04
2019-04-29T19:24:13.469Z,100259.05
2019-04-29T19:26:45.027Z,100254.84
2019-04-29T19:29:16.389Z,100255.22
2019-04-29T19:31:49.859Z,100249.65
2019-04-29T19:34:20.744Z,100251.50
2019-04-29T19:36:55.679Z,100246.77
2019-04-29T19:39:25.487Z,100247.30
2019-04-29T19:41:57.989Z,100245.13
2019-04-29T19:44:33.224Z,100245.62
2019-04-29T19:47:02.368Z,100249.12
2019-04-29T19:49:33.662Z,100246.45
2019-04-29T19:52:04.957Z,100237.82
2019-04-29T19:54:37.072Z,100233.45
2019-04-29T19:57:08.253Z,100228.34
2019-04-29T19:59:50.367Z,100228.78
2019-04-29T20:02:13.020Z,100235.38
2019-04-29T20:04:52.294Z,100238.97
2019-04-29T20:07:21.283Z,100237.23
2019-04-29T20:10:01.922Z,100225.02
2019-04-29T20:12:26.685Z,100230.86
2019-04-29T20:15:01.707Z,100233.06
2019-04-29T20:17:50.069Z,100238.48
2019-04-29T20:20:25.303Z,100230.56
2019-04-29T20:22:57.631Z,100232.30
2019-04-29T20:25:34.160Z,100233.06
2019-04-29T20:28:06.064Z,100235.70
2019-04-29T20:30:35.490Z,100236.20
2019-04-29T20:33:11.072Z,100239.20
2019-04-29T20:35:40.269Z,100243.52
2019-04-29T20:38:12.746Z,100238.14
2019-04-29T20:40:44.130Z,100245.58
2019-04-29T20:43:20.667Z,100238.84
2019-04-29T20:45:50.300Z,100235.80
2019-04-29T20:48:21.801Z,100240.61
2019-04-29T20:50:54.688Z,100237.47
2019-04-29T20:53:30.913Z,100237.82
2019-04-29T20:56:10.196Z,100233.80
2019-04-29T20:58:36.409Z,100236.80
2019-04-29T21:01:11.253Z,100230.63
2019-04-29T21:03:48.473Z,100234.15
2019-04-29T21:06:15.832Z,100231.09
2019-04-29T21:08:51.193Z,100239.31
2019-04-29T21:11:38.197Z,100240.08
2019-04-29T21:14:17.124Z,100236.48
2019-04-29T21:16:52.504Z,100235.58
2019-04-29T21:19:23.948Z,100238.22
2019-04-29T21:21:55.347Z,100234.73
2019-04-29T21:24:26.598Z,100238.16
2019-04-29T21:26:57.986Z,100239.48
2019-04-29T21:29:29.312Z,100231.20
2019-04-29T21:32:01.855Z,100230.83
2019-04-29T21:34:38.588Z,100235.82
2019-04-29T21:37:15.550Z,100240.16
2019-04-29T21:39:48.242Z,100243.69
2019-04-29T21:42:29.799Z,100243.69
2019-04-29T21:45:03.517Z,100229.72
2019-04-29T21:47:42.686Z,100231.09
2019-04-29T21:50:06.312Z,100223.70
2019-04-29T21:52:38.899Z,100228.10
2019-04-29T21:55:10.066Z,100228.58
2019-04-29T21:57:41.331Z,100225.52
2019-04-29T22:00:12.572Z,100226.37
2019-04-29T22:02:46.675Z,100223.78
2019-04-29T22:05:18.733Z,100224.20
2019-04-29T22:07:50.012Z,100221.55
2019-04-29T22:10:25.143Z,100225.52
2019-04-29T22:12:58.357Z,100225.58
2019-04-29T22:15:32.887Z,100220.35
2019-04-29T22:18:01.628Z,100220.35
2019-04-29T22:20:37.514Z,100219.94
2019-04-29T22:23:12.932Z,100217.70
2019-04-29T22:25:41.169Z,100223.44
2019-04-29T22:28:16.104Z,100218.50
2019-04-29T22:30:45.422Z,100217.17
2019-04-29T22:33:18.513Z,100217.17
2019-04-29T22:35:49.730Z,100209.78
2019-04-29T22:38:21.119Z,100213.33
2019-04-29T22:40:55.072Z,100211.60
2019-04-29T22:43:28.221Z,100210.69
2019-04-29T22:45:59.633Z,100210.19
2019-04-29T22:48:31.082Z,100208.88
2019-04-29T22:51:05.763Z,100202.70
2019-04-29T22:53:40.019Z,100208.88
2019-04-29T22:56:13.942Z,100213.75
2019-04-29T22:58:43.842Z,100206.31
2019-04-29T23:01:17.772Z,100208.52
2019-04-29T23:03:49.219Z,100198.39
2019-04-29T23:06:20.684Z,100199.20
2019-04-29T23:08:52.980Z,100192.06
2019-04-29T23:11:24.145Z,100189.42
2019-04-29T23:13:55.525Z,100193.80
2019-04-29T23:16:26.871Z,100188.52
2019-04-29T23:18:59.454Z,100178.85
2019-04-29T23:21:42.699Z,100177.95
2019-04-29T23:24:13.251Z,100176.56
2019-04-29T23:26:44.897Z,100174.39
2019-04-29T23:29:16.240Z,100166.88
2019-04-29T23:31:47.524Z,100158.53
2019-04-29T23:34:18.774Z,100158.53
2019-04-29T23:36:50.151Z,100170.87
2019-04-29T23:39:21.659Z,100160.27
2019-04-29T23:41:55.227Z,100172.45
2019-04-29T23:44:26.065Z,100165.84
2019-04-29T23:46:58.478Z,100168.98
2019-04-29T23:49:29.728Z,100164.55
2019-04-29T23:52:01.946Z,100168.98
2019-04-29T23:54:44.317Z,100164.23
2019-04-29T23:57:16.339Z,100161.67
